Time;durP1;ratioP1;P1;durP2;ratioP2;P2;SDS_P1;SDS_P2;PMS_P1;PMS_P2;Temp;Humidity;BMP_temperature;BMP_pressure;BME280_temperature;BME280_humidity;BME280_pressure;Samples;Min_cycle;Max_cycle;Signal;HPM_P1;HPM_P2
2021/12/07 00:00:31;;;;;;;1.60;1.50;;;6.30;99.90;;;;;;5025224;28;20205;-94
2021/12/07 00:03:02;;;;;;;1.40;1.30;;;6.30;99.90;;;;;;5025008;28;20297;-94
2021/12/07 00:05:34;;;;;;;1.80;1.70;;;6.30;99.90;;;;;;5020036;28;20216;-94
2021/12/07 00:08:06;;;;;;;2.00;1.87;;;6.30;99.90;;;;;;5024009;28;20209;-94
2021/12/07 00:10:41;;;;;;;2.70;2.50;;;6.30;99.90;;;;;;5025125;28;20243;-90
2021/12/07 00:13:15;;;;;;;2.97;2.67;;;6.30;99.90;;;;;;5022679;28;20243;-95
2021/12/07 00:15:47;;;;;;;3.90;3.37;;;6.30;99.90;;;;;;5020935;28;20236;-94
2021/12/07 00:18:18;;;;;;;2.60;2.40;;;6.30;99.90;;;;;;5017324;28;20226;-93
2021/12/07 00:20:50;;;;;;;2.77;2.53;;;6.30;99.90;;;;;;5026940;28;20205;-93
2021/12/07 00:23:22;;;;;;;2.90;2.37;;;6.30;99.90;;;;;;5032029;28;20619;-94
2021/12/07 00:25:58;;;;;;;3.17;2.40;;;6.30;99.90;;;;;;5028843;28;20289;-92
2021/12/07 00:28:29;;;;;;;2.17;2.00;;;6.30;99.90;;;;;;5034544;28;20202;-94
2021/12/07 00:31:10;;;;;;;2.10;1.93;;;6.30;99.90;;;;;;5036929;28;20209;-93
2021/12/07 00:33:49;;;;;;;2.10;1.90;;;6.30;99.90;;;;;;5032186;28;20216;-94
2021/12/07 00:36:23;;;;;;;2.07;1.87;;;6.30;99.90;;;;;;5032234;28;20194;-93
2021/12/07 00:38:55;;;;;;;2.40;1.97;;;6.40;99.90;;;;;;5030531;28;20571;-92
2021/12/07 00:41:30;;;;;;;2.80;1.90;;;6.30;99.90;;;;;;5031272;28;20221;-93
2021/12/07 00:44:05;;;;;;;1.40;1.30;;;6.30;99.90;;;;;;5029389;28;20205;-94
2021/12/07 00:46:37;;;;;;;1.57;1.10;;;6.40;99.90;;;;;;5026029;28;20213;-93
2021/12/07 00:49:09;;;;;;;1.90;1.70;;;6.30;99.90;;;;;;5025657;28;20289;-93
2021/12/07 00:51:43;;;;;;;1.60;1.50;;;6.30;99.90;;;;;;5028413;28;20211;-93
2021/12/07 00:54:15;;;;;;;1.60;1.50;;;6.30;99.90;;;;;;5027509;28;20900;-94
2021/12/07 00:56:50;;;;;;;5.43;4.93;;;6.40;99.90;;;;;;5032139;28;20210;-94
2021/12/07 00:59:21;;;;;;;4.37;3.40;;;6.40;99.90;;;;;;5032198;28;20193;-94
2021/12/07 01:01:53;;;;;;;6.73;6.03;;;6.40;99.90;;;;;;5027298;28;20229;-94
2021/12/07 01:04:27;;;;;;;6.40;5.80;;;6.40;99.90;;;;;;5026122;28;20225;-93
2021/12/07 01:07:06;;;;;;;5.63;4.53;;;6.40;99.90;;;;;;5033392;28;20204;-93
2021/12/07 01:24:38;;;;;;;4.93;3.53;;;6.50;99.90;;;;;;5029351;28;20229;-93
2021/12/07 01:26:35;;;;;;;7.03;5.43;;;6.50;99.90;;;;;;5026706;28;20206;-93
2021/12/07 01:29:08;;;;;;;5.13;4.53;;;6.50;99.90;;;;;;5025823;28;20715;-92
2021/12/07 01:31:50;;;;;;;4.87;4.33;;;6.50;99.90;;;;;;5017276;28;20263;-95
2021/12/07 01:34:55;;;;;;;6.77;5.10;;;6.50;99.90;;;;;;5011978;23;20273;-91
2021/12/07 01:40:31;;;;;;;4.10;3.63;;;6.40;99.90;;;;;;4990779;28;20221;-90
2021/12/07 01:51:46;;;;;;;3.57;3.10;;;6.40;99.90;;;;;;5002189;28;20225;-91
2021/12/07 02:00:13;;;;;;;4.33;3.70;;;6.40;99.90;;;;;;5022794;28;20214;-90
2021/12/07 02:02:44;;;;;;;4.50;3.63;;;6.30;99.90;;;;;;5013115;28;20277;-92
2021/12/07 02:05:18;;;;;;;4.90;3.47;;;6.40;99.90;;;;;;5031643;28;20201;-91
2021/12/07 02:18:31;;;;;;;3.70;3.10;;;6.40;99.90;;;;;;5011415;28;20216;-92
2021/12/07 02:21:17;;;;;;;4.30;3.70;;;6.40;99.90;;;;;;5010913;28;20230;-91
2021/12/07 02:23:51;;;;;;;3.87;3.53;;;6.40;99.90;;;;;;5009563;28;20237;-92
2021/12/07 02:26:23;;;;;;;4.20;3.77;;;6.40;99.90;;;;;;5010616;28;20246;-92
2021/12/07 02:28:58;;;;;;;5.63;3.93;;;6.50;99.90;;;;;;5012207;28;20218;-94
2021/12/07 02:31:30;;;;;;;5.70;5.17;;;6.50;99.90;;;;;;5006576;28;20300;-96
2021/12/07 02:34:02;;;;;;;6.40;5.53;;;6.50;99.90;;;;;;5007838;28;20205;-95
2021/12/07 02:36:36;;;;;;;4.93;4.43;;;6.50;99.90;;;;;;5009995;28;20222;-96
2021/12/07 02:39:08;;;;;;;4.27;3.87;;;6.50;99.90;;;;;;4994967;28;20202;-93
2021/12/07 02:41:41;;;;;;;5.40;4.63;;;6.50;99.90;;;;;;4999293;28;20191;-94
2021/12/07 02:44:13;;;;;;;4.50;4.10;;;6.40;99.90;;;;;;5012109;28;20234;-94
2021/12/07 02:46:45;;;;;;;4.73;3.87;;;6.50;99.90;;;;;;5010666;28;20352;-93
2021/12/07 02:49:19;;;;;;;4.10;3.70;;;6.50;99.90;;;;;;5008385;28;20246;-94
2021/12/07 02:51:53;;;;;;;4.70;3.73;;;6.50;99.90;;;;;;5010946;28;20259;-94
2021/12/07 02:54:24;;;;;;;4.70;3.90;;;6.50;99.90;;;;;;5008776;28;20206;-94
2021/12/07 02:56:56;;;;;;;4.87;3.90;;;6.40;99.90;;;;;;5008878;28;20207;-95
2021/12/07 03:27:05;;;;;;;4.50;4.10;;;6.50;99.90;;;;;;5009928;28;20202;-95
2021/12/07 03:29:39;;;;;;;4.57;3.43;;;6.60;99.90;;;;;;5011178;28;20259;-96
2021/12/07 03:32:11;;;;;;;4.37;3.93;;;6.50;99.90;;;;;;5010402;28;20603;-96
2021/12/07 03:53:43;;;;;;;6.47;4.40;;;6.50;99.90;;;;;;5011061;26;20210;-94
2021/12/07 03:56:16;;;;;;;5.50;4.30;;;6.60;99.90;;;;;;5009423;28;20270;-94
2021/12/07 03:58:48;;;;;;;5.30;4.33;;;6.60;99.90;;;;;;5014437;28;20617;-94
2021/12/07 04:01:23;;;;;;;4.37;3.93;;;6.60;99.90;;;;;;5008059;28;20234;-93
2021/12/07 04:03:56;;;;;;;5.20;3.83;;;6.60;99.90;;;;;;5014069;28;20210;-95
2021/12/07 04:06:28;;;;;;;5.47;3.83;;;6.60;99.90;;;;;;5009857;28;20311;-92
2021/12/07 04:09:03;;;;;;;4.33;3.87;;;6.60;99.90;;;;;;5006393;28;20213;-95
2021/12/07 04:11:35;;;;;;;5.03;4.17;;;6.50;99.90;;;;;;5007320;28;20240;-96
2021/12/07 04:14:08;;;;;;;6.13;4.20;;;6.60;99.90;;;;;;5008037;28;20202;-95
2021/12/07 04:16:39;;;;;;;5.37;4.40;;;6.60;99.90;;;;;;4978937;28;20302;-96
2021/12/07 04:19:13;;;;;;;4.97;4.27;;;6.60;99.90;;;;;;4991633;28;20236;-94
2021/12/07 04:21:45;;;;;;;5.47;4.67;;;6.60;99.90;;;;;;4996172;28;20195;-94
2021/12/07 04:24:18;;;;;;;5.70;4.80;;;6.60;99.90;;;;;;4996965;28;20209;-94
2021/12/07 04:26:56;;;;;;;6.00;5.20;;;6.60;99.90;;;;;;4994159;28;20236;-95
2021/12/07 04:32:04;;;;;;;6.97;5.43;;;6.60;99.90;;;;;;4986429;28;20249;-96
2021/12/07 04:34:37;;;;;;;6.53;4.97;;;6.60;99.90;;;;;;4991391;28;20238;-96
2021/12/07 04:37:10;;;;;;;6.07;5.13;;;6.60;99.90;;;;;;4987793;28;20214;-95
2021/12/07 04:42:17;;;;;;;5.43;4.67;;;6.60;99.90;;;;;;4976598;28;20211;-95
2021/12/07 04:44:53;;;;;;;6.80;5.00;;;6.60;99.90;;;;;;4967907;28;20305;-95
2021/12/07 04:47:33;;;;;;;6.43;5.50;;;6.60;99.90;;;;;;4975921;28;20671;-95
2021/12/07 04:58:40;;;;;;;6.57;5.40;;;6.70;99.90;;;;;;5161380;27;20188;-95
2021/12/07 05:01:12;;;;;;;7.13;5.83;;;6.60;99.90;;;;;;5154809;27;20202;-94
2021/12/07 05:03:45;;;;;;;6.90;5.53;;;6.60;99.90;;;;;;5158860;27;20200;-94
2021/12/07 05:06:18;;;;;;;8.73;5.23;;;6.60;99.90;;;;;;5141905;27;20189;-95
2021/12/07 05:08:57;;;;;;;6.47;5.67;;;6.60;99.90;;;;;;5123525;27;20616;-93
2021/12/07 05:11:47;;;;;;;6.43;5.40;;;6.60;99.90;;;;;;5126171;27;20224;-92
2021/12/07 05:14:20;;;;;;;6.30;5.40;;;6.50;99.90;;;;;;5146211;27;20212;-92
2021/12/07 05:17:02;;;;;;;7.70;4.90;;;6.50;99.90;;;;;;5140851;27;20201;-91
2021/12/07 05:39:11;;;;;;;8.57;6.13;;;6.60;99.90;;;;;;5135940;27;20204;-93
2021/12/07 05:41:44;;;;;;;7.07;5.10;;;6.60;99.90;;;;;;5141551;27;20236;-92
2021/12/07 05:44:16;;;;;;;8.23;5.30;;;6.60;99.90;;;;;;5134465;27;20248;-90
2021/12/07 05:46:49;;;;;;;6.13;5.43;;;6.60;99.90;;;;;;5148458;27;20222;-93
2021/12/07 05:49:21;;;;;;;5.87;3.80;;;6.60;99.90;;;;;;5149678;27;20197;-92
2021/12/07 05:54:39;;;;;;;9.93;4.43;;;6.60;99.90;;;;;;5152283;27;20196;-92
2021/12/07 05:57:14;;;;;;;10.30;4.50;;;6.60;99.90;;;;;;5148686;27;20205;-91
2021/12/07 05:59:45;;;;;;;4.50;3.90;;;6.60;99.90;;;;;;5152061;27;20272;-93
2021/12/07 06:02:17;;;;;;;3.60;3.30;;;6.60;99.90;;;;;;5134985;27;20698;-92
2021/12/07 06:04:52;;;;;;;4.10;2.83;;;6.60;99.90;;;;;;5089644;27;20203;-91
2021/12/07 06:07:25;;;;;;;3.03;2.23;;;6.60;99.90;;;;;;5137907;27;20204;-96
2021/12/07 06:09:56;;;;;;;5.27;2.30;;;6.50;99.90;;;;;;5141324;27;20344;-96
2021/12/07 06:12:30;;;;;;;2.73;2.17;;;6.60;99.90;;;;;;5140324;27;20236;-95
2021/12/07 06:15:04;;;;;;;4.30;2.30;;;6.60;99.90;;;;;;5132356;22;20299;-95
2021/12/07 06:17:35;;;;;;;5.63;2.80;;;6.60;99.90;;;;;;5062919;28;20231;-96
2021/12/07 06:20:08;;;;;;;5.70;2.90;;;6.50;99.90;;;;;;5074722;28;20238;-96
2021/12/07 06:22:52;;;;;;;6.80;3.77;;;6.50;99.90;;;;;;5075767;28;20235;-95
2021/12/07 06:25:23;;;;;;;6.97;3.67;;;6.60;99.90;;;;;;5078914;28;20238;-96
2021/12/07 06:27:58;;;;;;;9.40;3.80;;;6.60;99.90;;;;;;5078243;28;20192;-96
2021/12/07 06:30:29;;;;;;;6.00;2.93;;;6.60;99.90;;;;;;5082385;28;20209;-96
2021/12/07 06:33:00;;;;;;;7.07;3.43;;;6.60;99.90;;;;;;5077773;28;20258;-95
2021/12/07 06:35:32;;;;;;;5.23;3.27;;;6.60;99.90;;;;;;5079259;28;20215;-96
2021/12/07 06:38:04;;;;;;;4.60;3.40;;;6.60;99.90;;;;;;5077707;28;20200;-96
2021/12/07 06:40:35;;;;;;;6.43;3.27;;;6.60;99.90;;;;;;5079029;28;20235;-96
2021/12/07 06:43:08;;;;;;;5.47;2.90;;;6.60;99.90;;;;;;5076645;28;20599;-96
2021/12/07 06:45:39;;;;;;;3.73;2.50;;;6.60;99.90;;;;;;5077963;28;20255;-96
2021/12/07 06:48:11;;;;;;;4.40;2.90;;;6.60;99.90;;;;;;5058258;28;20226;-96
2021/12/07 06:50:42;;;;;;;3.37;3.07;;;6.60;99.90;;;;;;5058961;28;20207;-96
2021/12/07 06:53:14;;;;;;;5.20;3.80;;;6.60;99.90;;;;;;5062023;28;20231;-95
2021/12/07 06:55:47;;;;;;;6.70;3.60;;;6.60;99.90;;;;;;5075690;28;20245;-95
2021/12/07 06:58:20;;;;;;;4.27;3.63;;;6.60;99.90;;;;;;5088631;28;20224;-95
2021/12/07 07:00:52;;;;;;;6.47;3.80;;;6.60;99.90;;;;;;5094836;28;20203;-96
2021/12/07 07:03:23;;;;;;;6.90;3.90;;;6.60;99.90;;;;;;5095257;28;20195;-95
2021/12/07 07:05:55;;;;;;;7.77;4.07;;;6.60;99.90;;;;;;5092938;28;20240;-96
2021/12/07 07:08:29;;;;;;;4.37;3.30;;;6.60;99.90;;;;;;5090969;28;20267;-94
2021/12/07 07:11:00;;;;;;;4.77;3.33;;;6.60;99.90;;;;;;5096897;28;20192;-95
2021/12/07 07:13:36;;;;;;;4.17;3.23;;;6.60;99.90;;;;;;5092171;28;20232;-96
2021/12/07 07:16:08;;;;;;;5.43;3.87;;;6.60;99.90;;;;;;5061125;28;20223;-95
2021/12/07 07:18:39;;;;;;;4.47;3.70;;;6.60;99.90;;;;;;5072085;28;20298;-94
2021/12/07 07:21:11;;;;;;;6.97;3.80;;;6.60;99.90;;;;;;5070348;28;20199;-96
2021/12/07 07:23:44;;;;;;;7.33;4.27;;;6.60;99.90;;;;;;5068048;28;20231;-96
2021/12/07 07:26:19;;;;;;;10.47;3.77;;;6.60;99.90;;;;;;5054238;28;20224;-96
2021/12/07 07:28:52;;;;;;;7.43;3.93;;;6.70;99.90;;;;;;5066520;28;20203;-96
2021/12/07 07:31:24;;;;;;;7.17;4.00;;;6.70;99.90;;;;;;5066754;28;20200;-96
2021/12/07 07:33:56;;;;;;;4.67;3.57;;;6.70;99.90;;;;;;5072623;28;20323;-96
2021/12/07 07:36:27;;;;;;;10.53;3.93;;;6.70;99.90;;;;;;5067195;28;20258;-96
2021/12/07 07:38:59;;;;;;;7.23;3.10;;;6.60;99.90;;;;;;5065514;28;20207;-96
2021/12/07 07:41:31;;;;;;;5.47;3.43;;;6.50;99.90;;;;;;5064190;28;20207;-95
2021/12/07 07:44:05;;;;;;;7.87;3.10;;;6.60;99.90;;;;;;5064563;28;20200;-96
2021/12/07 07:46:37;;;;;;;3.10;2.80;;;6.50;99.90;;;;;;5066642;28;20200;-96
2021/12/07 07:49:08;;;;;;;4.30;3.30;;;6.50;99.90;;;;;;5065937;28;20200;-96
2021/12/07 07:51:41;;;;;;;5.33;2.60;;;6.50;99.90;;;;;;5061616;28;20280;-96
2021/12/07 07:54:14;;;;;;;2.50;2.30;;;6.60;99.90;;;;;;5048268;28;20258;-94
2021/12/07 07:56:45;;;;;;;2.40;2.17;;;6.60;99.90;;;;;;5066880;28;20342;-94
2021/12/07 07:59:18;;;;;;;6.80;2.40;;;6.50;99.90;;;;;;5072242;28;20204;-94
2021/12/07 08:01:49;;;;;;;3.33;1.73;;;6.50;99.90;;;;;;5061419;28;20216;-95
2021/12/07 08:04:21;;;;;;;2.97;2.07;;;6.50;99.90;;;;;;5063653;28;20633;-95
2021/12/07 08:06:52;;;;;;;2.57;2.10;;;6.50;99.90;;;;;;5066590;28;20255;-95
2021/12/07 08:09:23;;;;;;;2.60;1.97;;;6.50;99.90;;;;;;5067625;28;20223;-94
2021/12/07 08:11:55;;;;;;;2.37;2.17;;;6.50;99.90;;;;;;5065494;28;20238;-94
2021/12/07 08:14:28;;;;;;;3.00;1.77;;;6.50;99.90;;;;;;5068371;28;20321;-95
2021/12/07 08:17:00;;;;;;;2.00;1.83;;;6.50;99.90;;;;;;5068715;28;20230;-94
2021/12/07 08:19:32;;;;;;;5.40;2.30;;;6.50;99.90;;;;;;5066461;28;20207;-94
2021/12/07 08:22:03;;;;;;;2.80;2.40;;;6.50;99.90;;;;;;5064145;28;20258;-94
2021/12/07 08:24:34;;;;;;;5.50;2.67;;;6.50;99.90;;;;;;5063737;28;20566;-95
2021/12/07 08:27:07;;;;;;;3.60;2.47;;;6.50;99.90;;;;;;5048755;28;20303;-94
2021/12/07 08:29:59;;;;;;;4.17;2.40;;;6.50;99.90;;;;;;5065080;28;20267;-96
2021/12/07 08:32:31;;;;;;;3.47;2.20;;;6.50;99.90;;;;;;5050152;28;20217;-95
2021/12/07 08:35:03;;;;;;;2.97;2.10;;;6.50;99.90;;;;;;5063524;28;20204;-96
2021/12/07 08:37:36;;;;;;;2.90;2.10;;;6.50;99.90;;;;;;5061281;28;20242;-96
2021/12/07 08:40:10;;;;;;;2.10;1.90;;;6.40;99.90;;;;;;5059891;28;20279;-96
2021/12/07 08:42:41;;;;;;;2.00;1.80;;;6.50;99.90;;;;;;5068379;28;20270;-96
2021/12/07 08:45:15;;;;;;;2.10;1.90;;;6.50;99.90;;;;;;5056907;28;20199;-94
2021/12/07 08:47:47;;;;;;;2.40;2.07;;;6.40;99.90;;;;;;5058362;28;20262;-96
2021/12/07 08:50:21;;;;;;;2.13;1.93;;;6.50;99.90;;;;;;5064813;28;20216;-96
2021/12/07 08:52:55;;;;;;;2.80;2.40;;;6.50;99.90;;;;;;5047479;28;20326;-95
2021/12/07 09:01:04;;;;;;;2.70;2.20;;;6.50;99.90;;;;;;5063908;28;20256;-95
2021/12/07 09:03:36;;;;;;;3.03;2.63;;;6.50;99.90;;;;;;5049760;28;20265;-94
2021/12/07 09:06:08;;;;;;;5.53;3.33;;;6.50;99.90;;;;;;5067287;28;20273;-94
2021/12/07 09:08:40;;;;;;;3.50;3.20;;;6.50;99.90;;;;;;5058723;28;20223;-94
2021/12/07 09:11:11;;;;;;;5.73;3.17;;;6.50;99.90;;;;;;5068496;28;20239;-95
2021/12/07 09:13:44;;;;;;;5.30;3.60;;;6.50;99.90;;;;;;5070659;28;20238;-94
2021/12/07 09:16:21;;;;;;;5.77;3.53;;;6.50;99.90;;;;;;5069324;28;20211;-95
2021/12/07 09:18:52;;;;;;;10.00;3.97;;;6.50;99.90;;;;;;5082194;28;20201;-95
2021/12/07 09:21:24;;;;;;;9.03;3.67;;;6.50;99.90;;;;;;5061503;28;20204;-95
2021/12/07 09:23:57;;;;;;;4.10;3.43;;;6.40;99.90;;;;;;5064942;28;20655;-95
2021/12/07 09:26:30;;;;;;;6.13;3.73;;;6.40;99.90;;;;;;5067713;28;20205;-94
2021/12/07 09:29:01;;;;;;;5.47;3.43;;;6.40;99.90;;;;;;5063313;28;20208;-94
2021/12/07 09:31:35;;;;;;;4.83;3.30;;;6.30;99.90;;;;;;5070683;28;20201;-94
2021/12/07 09:34:09;;;;;;;4.47;3.30;;;6.20;99.90;;;;;;5071184;28;20277;-94
2021/12/07 09:36:41;;;;;;;3.87;2.90;;;6.30;99.90;;;;;;5067070;28;20216;-95
2021/12/07 09:39:15;;;;;;;3.53;2.70;;;6.20;99.90;;;;;;5069416;28;20634;-95
2021/12/07 09:41:49;;;;;;;3.63;2.97;;;6.20;99.90;;;;;;5049154;28;20824;-95
2021/12/07 09:44:21;;;;;;;4.43;3.03;;;6.30;99.90;;;;;;5053277;28;20306;-95
2021/12/07 09:46:56;;;;;;;3.37;2.57;;;6.30;99.90;;;;;;5054880;28;20239;-95
2021/12/07 09:49:27;;;;;;;2.90;2.23;;;6.30;99.90;;;;;;5073091;28;20270;-96
2021/12/07 09:51:58;;;;;;;2.77;1.97;;;6.40;99.90;;;;;;5063724;28;20199;-96
2021/12/07 09:54:31;;;;;;;4.00;2.13;;;6.40;99.90;;;;;;5064034;28;20234;-96
2021/12/07 09:57:04;;;;;;;3.10;1.97;;;6.40;99.90;;;;;;5053025;28;20572;-96
2021/12/07 09:59:36;;;;;;;3.33;2.63;;;6.50;99.90;;;;;;5063636;28;20224;-96
2021/12/07 10:02:09;;;;;;;2.53;2.20;;;6.40;99.90;;;;;;5075886;28;20223;-96
2021/12/07 10:04:42;;;;;;;2.73;2.50;;;6.50;99.90;;;;;;5071576;28;20203;-96
2021/12/07 10:07:15;;;;;;;2.30;2.10;;;6.50;99.90;;;;;;5069542;28;20196;-96
2021/12/07 10:09:47;;;;;;;2.20;1.90;;;6.50;99.90;;;;;;5068409;28;20222;-95
2021/12/07 10:12:20;;;;;;;2.23;2.00;;;6.60;99.90;;;;;;5068011;28;20230;-95
2021/12/07 10:14:52;;;;;;;2.67;2.30;;;6.60;99.90;;;;;;5066876;28;20220;-95
2021/12/07 10:17:26;;;;;;;2.60;2.40;;;6.60;99.90;;;;;;5047794;28;20254;-95
2021/12/07 10:19:58;;;;;;;4.50;2.93;;;6.60;99.90;;;;;;5067285;28;20253;-95
2021/12/07 10:22:35;;;;;;;2.93;2.33;;;6.60;99.90;;;;;;5063773;28;20254;-94
2021/12/07 10:25:07;;;;;;;2.97;2.60;;;6.70;99.90;;;;;;5068573;28;20290;-95
2021/12/07 10:27:43;;;;;;;3.20;2.73;;;6.70;99.90;;;;;;5042937;28;20216;-95
2021/12/07 10:30:23;;;;;;;3.27;2.87;;;6.70;99.90;;;;;;5065341;28;20306;-95
2021/12/07 10:33:16;;;;;;;11.00;4.70;;;6.70;99.90;;;;;;5066999;28;20261;-95
2021/12/07 10:35:47;;;;;;;37.10;6.07;;;6.80;99.90;;;;;;5064468;28;20220;-94
2021/12/07 10:38:20;;;;;;;29.03;5.77;;;6.80;99.90;;;;;;5072365;28;20290;-96
2021/12/07 10:40:59;;;;;;;64.37;6.20;;;6.80;99.90;;;;;;5051453;28;20269;-96
2021/12/07 10:43:52;;;;;;;65.73;6.20;;;6.80;99.90;;;;;;5067378;28;20200;-96
2021/12/07 10:46:44;;;;;;;110.53;8.00;;;6.80;99.90;;;;;;5065944;28;20258;-96
2021/12/07 10:49:29;;;;;;;26.30;4.70;;;6.80;99.90;;;;;;5067390;28;21361;-96
2021/12/07 10:52:29;;;;;;;98.00;7.67;;;6.70;99.90;;;;;;5067892;28;20230;-94
2021/12/07 10:55:05;;;;;;;30.87;4.33;;;6.70;99.90;;;;;;5068700;28;20251;-96
2021/12/07 10:57:43;;;;;;;27.97;5.37;;;6.70;99.90;;;;;;5068557;28;20286;-96
2021/12/07 11:00:23;;;;;;;20.33;5.57;;;6.80;99.90;;;;;;5065378;28;20267;-94
2021/12/07 11:02:59;;;;;;;26.00;4.70;;;6.80;99.90;;;;;;5067440;28;20223;-96
2021/12/07 11:05:35;;;;;;;5.43;3.87;;;6.80;99.90;;;;;;5052777;28;20297;-96
2021/12/07 11:08:08;;;;;;;31.83;5.07;;;6.80;99.90;;;;;;5049736;28;20231;-95
2021/12/07 11:10:42;;;;;;;23.47;4.40;;;6.80;99.90;;;;;;5066655;28;20218;-96
2021/12/07 11:13:18;;;;;;;66.83;6.47;;;6.80;99.90;;;;;;5065935;28;20195;-95
2021/12/07 11:15:56;;;;;;;19.00;4.27;;;6.80;99.90;;;;;;5067659;28;20726;-95
2021/12/07 11:18:30;;;;;;;31.07;4.53;;;6.70;99.90;;;;;;5050320;28;20243;-95
2021/12/07 11:21:12;;;;;;;30.13;5.30;;;6.80;99.90;;;;;;5068691;28;20210;-95
2021/12/07 11:23:47;;;;;;;15.03;4.20;;;6.70;99.90;;;;;;5042110;28;20592;-95
2021/12/07 11:31:57;;;;;;;5.00;3.27;;;6.70;99.90;;;;;;5076666;28;20218;-95
2021/12/07 11:34:32;;;;;;;7.60;3.50;;;6.80;99.90;;;;;;5073615;28;20219;-95
2021/12/07 11:37:08;;;;;;;5.50;3.93;;;6.80;99.90;;;;;;5074684;28;20238;-96
2021/12/07 11:39:47;;;;;;;7.20;3.47;;;6.80;99.90;;;;;;5066316;28;20199;-96
2021/12/07 11:42:23;;;;;;;4.37;3.80;;;6.80;99.90;;;;;;5066921;28;20203;-96
2021/12/07 11:44:57;;;;;;;4.10;3.70;;;6.80;99.90;;;;;;5066636;28;20332;-96
2021/12/07 11:47:33;;;;;;;5.30;3.50;;;6.80;99.90;;;;;;5070961;28;20625;-96
2021/12/07 11:50:19;;;;;;;3.87;3.43;;;6.80;99.90;;;;;;5062273;28;20231;-96
2021/12/07 11:52:56;;;;;;;5.33;3.13;;;6.70;99.90;;;;;;5051725;28;20238;-95
2021/12/07 11:55:29;;;;;;;5.00;3.33;;;6.70;99.90;;;;;;5067601;28;20230;-95
2021/12/07 11:58:03;;;;;;;4.40;3.30;;;6.70;99.90;;;;;;5072295;28;20204;-95
2021/12/07 12:00:39;;;;;;;3.90;3.20;;;6.80;99.90;;;;;;5075879;28;20743;-95
2021/12/07 12:03:14;;;;;;;4.50;3.03;;;6.80;99.90;;;;;;5068209;28;20202;-93
2021/12/07 12:05:48;;;;;;;5.03;2.70;;;6.80;99.90;;;;;;5083917;28;20199;-94
2021/12/07 12:08:23;;;;;;;3.40;3.10;;;6.80;99.90;;;;;;5062131;28;20192;-95
2021/12/07 12:11:00;;;;;;;3.27;2.97;;;6.80;99.90;;;;;;5083875;28;20219;-95
2021/12/07 12:13:43;;;;;;;5.87;3.10;;;6.80;99.90;;;;;;5082794;28;20196;-91
2021/12/07 12:16:22;;;;;;;3.53;3.00;;;6.70;99.90;;;;;;5083530;28;20233;-94
2021/12/07 12:19:04;;;;;;;3.53;2.97;;;6.70;99.90;;;;;;5062487;28;20208;-94
2021/12/07 12:21:42;;;;;;;5.23;3.53;;;6.80;99.90;;;;;;5069772;28;20208;-94
2021/12/07 12:24:22;;;;;;;5.07;3.10;;;6.80;99.90;;;;;;5070799;28;20280;-94
2021/12/07 12:27:08;;;;;;;5.23;4.00;;;6.80;99.90;;;;;;5065698;28;20660;-94
2021/12/07 12:29:41;;;;;;;60.50;6.00;;;6.80;99.90;;;;;;5071477;28;20555;-93
2021/12/07 12:32:13;;;;;;;12.13;4.00;;;6.80;99.90;;;;;;5064230;28;20244;-94
2021/12/07 12:34:52;;;;;;;25.87;4.40;;;6.80;99.90;;;;;;5048859;28;20255;-96
2021/12/07 12:37:28;;;;;;;48.97;5.47;;;6.70;99.90;;;;;;5052047;28;20690;-95
2021/12/07 12:40:03;;;;;;;47.40;5.43;;;6.70;99.90;;;;;;5066142;28;20196;-95
2021/12/07 12:42:38;;;;;;;40.37;5.50;;;6.70;99.90;;;;;;5067366;28;20217;-96
2021/12/07 12:45:19;;;;;;;13.23;4.30;;;6.80;99.90;;;;;;5068503;28;21020;-95
2021/12/07 12:47:59;;;;;;;17.53;4.60;;;6.70;99.90;;;;;;5078753;28;21171;-96
2021/12/07 12:50:33;;;;;;;25.63;5.10;;;6.70;99.90;;;;;;5065755;28;20218;-94
2021/12/07 12:53:08;;;;;;;25.73;5.03;;;6.80;99.90;;;;;;5081283;28;21125;-95
2021/12/07 12:55:57;;;;;;;49.03;6.10;;;6.80;99.90;;;;;;5081677;28;20300;-95
2021/12/07 12:58:42;;;;;;;28.53;5.47;;;6.70;99.90;;;;;;5083578;28;20236;-96
2021/12/07 13:01:21;;;;;;;26.67;5.53;;;6.70;99.90;;;;;;5082777;28;20202;-95
2021/12/07 13:04:06;;;;;;;25.03;4.97;;;6.70;99.90;;;;;;5084308;28;20198;-95
2021/12/07 13:07:23;;;;;;;28.63;5.33;;;6.70;99.90;;;;;;5061312;28;20199;-96
2021/12/07 13:09:59;;;;;;;8.93;4.10;;;6.70;99.90;;;;;;5063636;28;20200;-96
2021/12/07 13:12:39;;;;;;;4.13;3.60;;;6.70;99.90;;;;;;5072574;28;20246;-95
2021/12/07 13:15:16;;;;;;;5.83;3.30;;;6.70;99.90;;;;;;5071001;28;20746;-95
2021/12/07 13:17:49;;;;;;;6.73;3.20;;;6.70;99.90;;;;;;5066902;28;20619;-94
2021/12/07 13:20:29;;;;;;;2.93;2.43;;;6.70;99.90;;;;;;5064390;28;20678;-95
2021/12/07 13:23:10;;;;;;;4.90;3.17;;;6.70;99.90;;;;;;5056485;28;20223;-94
2021/12/07 13:25:46;;;;;;;4.40;2.90;;;6.70;99.90;;;;;;5067888;28;20207;-96
2021/12/07 13:28:25;;;;;;;3.70;2.47;;;6.70;99.90;;;;;;5068527;28;20286;-95
2021/12/07 13:31:04;;;;;;;3.30;2.57;;;6.80;99.90;;;;;;5070421;28;20211;-94
2021/12/07 13:33:41;;;;;;;4.97;2.60;;;6.80;99.90;;;;;;5069478;28;20195;-94
2021/12/07 13:36:32;;;;;;;4.13;3.10;;;6.80;99.90;;;;;;5062950;28;20269;-95
2021/12/07 13:39:51;;;;;;;13.57;3.10;;;6.70;99.90;;;;;;5087615;28;20199;-93
2021/12/07 13:42:28;;;;;;;8.03;2.77;;;6.70;99.90;;;;;;5036954;28;20267;-96
2021/12/07 13:45:06;;;;;;;3.27;2.63;;;6.70;99.90;;;;;;5029681;28;20272;-94
2021/12/07 13:47:39;;;;;;;10.37;3.57;;;6.70;99.90;;;;;;5055735;28;20210;-96
2021/12/07 13:50:13;;;;;;;9.00;3.10;;;6.70;99.90;;;;;;5071354;28;20284;-95
2021/12/07 13:52:47;;;;;;;4.17;3.00;;;6.70;99.90;;;;;;5055834;28;20593;-96
2021/12/07 13:55:19;;;;;;;7.53;3.10;;;6.70;99.90;;;;;;5077192;28;20222;-96
2021/12/07 13:57:53;;;;;;;6.03;2.90;;;6.70;99.90;;;;;;5066027;28;20228;-95
2021/12/07 14:00:29;;;;;;;6.50;2.83;;;6.80;99.90;;;;;;5052578;28;20741;-96
2021/12/07 14:03:06;;;;;;;4.70;2.97;;;6.70;99.90;;;;;;5068449;28;20701;-95
2021/12/07 14:05:40;;;;;;;4.13;3.40;;;6.70;99.90;;;;;;5068040;28;20211;-95
2021/12/07 14:08:14;;;;;;;4.70;2.93;;;6.70;99.90;;;;;;5053054;28;20203;-95
2021/12/07 14:10:47;;;;;;;7.10;3.77;;;6.70;99.90;;;;;;5064693;28;20728;-96
2021/12/07 14:13:22;;;;;;;25.77;4.70;;;6.70;99.90;;;;;;5064746;28;20234;-95
2021/12/07 14:16:13;;;;;;;44.50;5.17;;;6.70;99.90;;;;;;5060664;28;20236;-96
2021/12/07 14:18:46;;;;;;;20.87;4.17;;;6.70;99.90;;;;;;5069303;28;20218;-96
2021/12/07 14:21:18;;;;;;;30.00;5.83;;;6.70;99.90;;;;;;5069108;28;20668;-96
2021/12/07 14:24:03;;;;;;;52.50;5.77;;;6.70;99.90;;;;;;5067679;28;20243;-94
2021/12/07 14:26:36;;;;;;;77.37;6.13;;;6.70;99.90;;;;;;5067202;28;20351;-94
2021/12/07 14:29:10;;;;;;;94.27;6.97;;;6.70;99.90;;;;;;5065670;28;20294;-94
2021/12/07 14:31:49;;;;;;;180.50;9.70;;;6.70;99.90;;;;;;5062609;28;20200;-96
2021/12/07 14:34:23;;;;;;;99.60;7.83;;;6.80;99.90;;;;;;5062546;28;20315;-96
2021/12/07 14:36:56;;;;;;;94.23;7.60;;;6.70;99.90;;;;;;5065122;28;20226;-96
2021/12/07 14:39:30;;;;;;;43.50;5.57;;;6.70;99.90;;;;;;5062503;28;20227;-96
2021/12/07 14:42:04;;;;;;;47.70;6.33;;;6.70;99.90;;;;;;5063038;28;20214;-93
2021/12/07 14:44:37;;;;;;;41.17;5.33;;;6.70;99.90;;;;;;5059556;28;20208;-95
2021/12/07 14:47:12;;;;;;;14.80;4.67;;;6.70;99.90;;;;;;5057821;28;20232;-95
2021/12/07 14:49:46;;;;;;;39.10;5.60;;;6.70;99.90;;;;;;5061531;28;20243;-96
2021/12/07 14:52:18;;;;;;;44.77;5.47;;;6.70;99.90;;;;;;5058996;28;20204;-96
2021/12/07 14:54:52;;;;;;;13.73;4.80;;;6.80;99.90;;;;;;5066911;28;20213;-96
2021/12/07 14:57:23;;;;;;;23.70;5.13;;;6.80;99.90;;;;;;5062699;28;20231;-96
2021/12/07 14:59:57;;;;;;;27.33;5.13;;;6.70;99.90;;;;;;5071400;28;20234;-96
2021/12/07 15:02:39;;;;;;;44.40;5.43;;;6.80;99.90;;;;;;5068837;28;20238;-96
2021/12/07 15:05:16;;;;;;;50.27;5.50;;;6.80;99.90;;;;;;5065865;28;20214;-96
2021/12/07 15:07:48;;;;;;;46.20;5.90;;;6.80;99.90;;;;;;5068735;28;20236;-96
2021/12/07 15:10:20;;;;;;;133.30;8.10;;;6.70;99.90;;;;;;5060913;28;20251;-96
2021/12/07 15:12:53;;;;;;;18.57;4.93;;;6.70;99.90;;;;;;5062484;28;20265;-94
2021/12/07 15:15:27;;;;;;;165.10;9.27;;;6.70;99.90;;;;;;5063288;28;20239;-96
2021/12/07 15:18:01;;;;;;;51.87;5.97;;;6.70;99.90;;;;;;5060057;28;20234;-95
2021/12/07 15:20:32;;;;;;;9.47;4.23;;;6.70;99.90;;;;;;5048750;28;20664;-95
2021/12/07 15:23:04;;;;;;;13.30;3.73;;;6.70;99.90;;;;;;5065971;28;20310;-94
2021/12/07 15:25:36;;;;;;;10.53;3.73;;;6.70;99.90;;;;;;5061180;28;20215;-96
2021/12/07 15:28:08;;;;;;;63.93;7.00;;;6.70;99.90;;;;;;5067954;28;20239;-95
2021/12/07 15:30:42;;;;;;;26.33;4.10;;;6.70;99.90;;;;;;5065425;28;20242;-96
2021/12/07 15:33:17;;;;;;;44.67;5.40;;;6.70;99.90;;;;;;5064797;28;20201;-96
2021/12/07 15:35:48;;;;;;;55.73;6.40;;;6.70;99.90;;;;;;5045982;28;20289;-96
2021/12/07 15:38:23;;;;;;;43.10;4.97;;;6.70;99.90;;;;;;5072409;28;20223;-95
2021/12/07 15:40:55;;;;;;;47.27;4.83;;;6.70;99.90;;;;;;5077842;28;20215;-96
2021/12/07 15:48:44;;;;;;;32.43;5.53;;;6.70;99.90;;;;;;5042490;28;20273;-93
2021/12/07 15:51:16;;;;;;;38.63;4.37;;;6.80;99.90;;;;;;5051864;28;20201;-94
2021/12/07 15:53:48;;;;;;;30.13;4.53;;;6.70;99.90;;;;;;5055054;28;20200;-95
2021/12/07 15:58:48;;;;;;;8.00;3.93;;;6.70;99.90;;;;;;5070971;28;20225;-95